BGTL

Details ICAO BGTL (THU)
Name THULE AIR BASE
Region Greenland
Timezone America/Thule (UTC-4.0)
Plans Departing 59
Arriving 80
Stats Elevation 251 ft / 77 m (AMSL)
Location 76.531203° -68.703163°
Runways 1
Magnetic Variation 44.516° W
Sunrise Unknown / Unknown
Sunset Unknown / Unknown
Advertisement - Login to hide

Runways

ID Width Length Bearing (true) Bearing (mag) Surface Threshold Offset Overrun Length
08T 140 ft / 43 m 9,957 ft / 3,035 m 84.91° 129.43° Asphalt 0 ft / 0 m 233 ft / 71 m
26T 140 ft / 43 m 9,957 ft / 3,035 m 265.02° 309.54° Asphalt 0 ft / 0 m 233 ft / 71 m

Approach Navaids

Runway Type Ident Frequency Range Bearing (true) Bearing (mag) Slope Elevation
08T Localiser IITL 109.50 MHz 18 nm / 33 km 85.06° 129.58° - 251 ft / 77 m (AMSL)
08T Glidescope IITL 109.50 MHz 10 nm / 19 km 85.06° 129.58° 3.00° 251 ft / 77 m (AMSL)

Map

Weather


0- 5 10 15 20 25 30 35+ Temperature / ° C

Clouds and Precipitation
Forecast for 2017-12-18 06:00 UTC. Updated 25 minutes ago

Ground ~20,000 ft ~40,000 ft Winds

METAR

Not found

TAF

TAF BGTL 180200Z 1802/1908 VRB06KT 9999 SCT015 QNH2914INS BECMG 1806/1807 VRB06KT 9999 BKN020 620206 QNH2896INS TXM18/1802Z TNM21/

Frequencies

Clearance 119.90 MHz CLNC DEL
Tower 126.20 MHz TWR
Ground 119.90 MHz GND
Approach 134.10 MHz APP
Warning: Do not use this data for real-world aviation or navigation. No guarantee of current accuracy is given.